Aérodrome :
LOGIN :

S'inscrire | Disclaimer

   EN    FR    IT 

 










Légende :    VFR   VFR Marginal   IFR   IFR Intensif   IFR Très Intensif
Visi : 
Plafond : 
>= 8 km
>= 3000ft
5 à 8 km
1000 à 3000 ft
1500m à 5 km
500 à 1000 ft
800 à 1500m
200 à 500 ft
< 800m
< 200 ft
Symboles :   Orages  Brouillard  Fortes neiges  Fortes précipitations  Vent > 20 kt
SIGMETs :   Divers  Orages  Givrage  Turbulence  Onde Orograph.  Cendres Volcan.







- Altitude de l'aérodrome : 392 ft
- Code IATA : CDG
- Voir les cartes d'approche


LFPG - Paris-Aeroport Charles De Gaulle

DERNIER METAR :
  • 222030Z 36002KT CAVOK 13/02 Q1028 NOSIG

METARs EXPIRÉS :
  • 222000Z 36004KT CAVOK 13/01 Q1028 NOSIG
  • 221930Z 36003KT CAVOK 13/01 Q1028 NOSIG
  • 221900Z 02003KT CAVOK 13/02 Q1028 NOSIG
  • 221830Z 36004KT CAVOK 14/02 Q1028 NOSIG
  • 221800Z 01004KT CAVOK 15/02 Q1027 NOSIG

TAF TAF LFPG
Valide du 22 à 18h jusqu'au 24 à 00h UTC


221700Z 2218/2324 29003KT CAVOK TX15/2314Z TN05/2306Z
TEMPO 2301/2310 3000 BR
PROB40
TEMPO 2303/2309 VRB02KT 0400 FG VV///
BECMG 2308/2310 03005KT BKN006
BECMG 2311/2313 BKN014
BECMG 2315/2317 SCT030
PROB40
TEMPO 2323/2324 4000 BR
ATIS : +33 1 48 62 10 92
Pas de NOTAMs connus pour ce terrain.



MET'MAP, la Météo Aéronautique d'un coup d'oeil ! - Copyright ORBIFLY Décembre 2007 - Disclaimer

ORBIFLY MET'MAP TEAM :

Programmation & Développement : Alexandra Zaïnal
Conception & Développement : Baudouin d'Aumeries
Co-Programmation & Développement : Marc-Olivier Méhu
Soutien technique & logistique : Manuel Goepfert

Contact : metmap@orbifly.com




SOURCES & CREDITS :

   NOAA